Time;durP1;ratioP1;P1;durP2;ratioP2;P2;SDS_P1;SDS_P2;PMS_P1;PMS_P2;Temp;Humidity;BMP_temperature;BMP_pressure;BME280_temperature;BME280_humidity;BME280_pressure;Samples;Min_cycle;Max_cycle;Signal;HPM_P1;HPM_P2
2023/08/12 00:01:24;;;;;;;2.67;2.38;;;21.30;99.90;;;;;;4966392;28;20234;-65
2023/08/12 00:03:51;;;;;;;2.90;2.70;;;21.30;99.90;;;;;;4947391;28;20203;-65
2023/08/12 00:06:18;;;;;;;3.03;2.25;;;21.30;99.90;;;;;;4949271;28;20590;-65
2023/08/12 00:08:45;;;;;;;3.58;2.63;;;21.30;99.90;;;;;;4969999;28;20298;-65
2023/08/12 00:11:12;;;;;;;2.60;2.50;;;21.30;99.90;;;;;;4969808;28;20215;-65
2023/08/12 00:13:40;;;;;;;3.33;2.40;;;21.30;99.90;;;;;;4969549;28;20692;-66
2023/08/12 00:16:07;;;;;;;2.58;2.10;;;21.30;99.90;;;;;;4969665;28;20297;-66
2023/08/12 00:18:36;;;;;;;3.88;2.45;;;21.30;99.90;;;;;;4969512;28;20330;-66
2023/08/12 00:21:08;;;;;;;4.00;2.58;;;21.30;99.90;;;;;;4969891;28;20306;-66
2023/08/12 00:23:40;;;;;;;5.75;2.20;;;21.30;99.90;;;;;;4969367;28;20203;-65
2023/08/12 00:26:07;;;;;;;3.03;2.30;;;21.30;99.90;;;;;;4970083;28;20282;-66
2023/08/12 00:28:34;;;;;;;2.50;2.40;;;21.20;99.90;;;;;;4969998;28;20305;-65
2023/08/12 00:31:02;;;;;;;2.95;2.70;;;21.10;99.90;;;;;;4969666;28;20209;-66
2023/08/12 00:33:29;;;;;;;2.65;2.20;;;21.00;99.90;;;;;;4969167;28;20315;-65
2023/08/12 00:35:59;;;;;;;3.67;2.50;;;20.90;99.90;;;;;;4969805;28;20299;-65
2023/08/12 00:38:26;;;;;;;3.00;2.40;;;20.80;99.90;;;;;;4969149;28;20218;-66
2023/08/12 00:40:53;;;;;;;2.65;2.50;;;20.80;99.90;;;;;;4969578;28;20280;-66
2023/08/12 00:43:19;;;;;;;5.15;2.25;;;20.70;99.90;;;;;;4968800;28;20213;-65
2023/08/12 00:45:46;;;;;;;2.97;2.78;;;20.70;99.90;;;;;;4969090;28;20214;-65
2023/08/12 00:48:16;;;;;;;3.90;2.50;;;20.70;99.90;;;;;;4969217;28;20322;-65
2023/08/12 00:50:44;;;;;;;3.10;2.53;;;20.70;99.90;;;;;;4968979;28;20729;-65
2023/08/12 00:53:11;;;;;;;2.58;2.30;;;20.70;99.90;;;;;;4968732;28;20210;-65
2023/08/12 00:55:38;;;;;;;3.22;2.70;;;20.70;99.90;;;;;;4968932;28;20299;-66
2023/08/12 00:58:06;;;;;;;2.53;2.33;;;20.80;99.90;;;;;;4969239;28;20293;-65
2023/08/12 01:00:33;;;;;;;2.70;2.50;;;20.80;99.90;;;;;;4969166;28;20235;-66
2023/08/12 01:03:01;;;;;;;2.55;2.35;;;20.80;99.90;;;;;;4969250;28;20217;-65
2023/08/12 01:05:31;;;;;;;2.95;2.70;;;20.80;99.90;;;;;;4968887;28;20207;-65
2023/08/12 01:07:58;;;;;;;2.88;2.30;;;20.70;99.90;;;;;;4967923;28;20202;-65
2023/08/12 01:10:30;;;;;;;4.50;2.60;;;20.70;99.90;;;;;;4968341;28;20224;-65
2023/08/12 01:13:07;;;;;;;2.42;2.22;;;20.70;99.90;;;;;;4968774;28;20313;-65
2023/08/12 01:15:35;;;;;;;2.78;2.45;;;20.70;99.90;;;;;;4968311;28;20199;-65
2023/08/12 01:18:04;;;;;;;3.10;2.75;;;20.60;99.90;;;;;;4968350;28;20318;-65
2023/08/12 01:20:33;;;;;;;3.17;2.42;;;20.60;99.90;;;;;;4968867;28;20725;-65
2023/08/12 01:23:13;;;;;;;4.10;2.97;;;20.60;99.90;;;;;;4968550;28;20753;-65
2023/08/12 01:25:40;;;;;;;2.67;2.47;;;20.60;99.90;;;;;;4968708;28;20194;-66
2023/08/12 01:28:07;;;;;;;3.42;2.50;;;20.60;99.90;;;;;;4968958;28;20306;-65
2023/08/12 01:30:36;;;;;;;2.20;2.10;;;20.70;99.90;;;;;;4968958;28;20217;-65
2023/08/12 01:33:11;;;;;;;3.50;2.42;;;20.70;99.90;;;;;;4968371;28;20248;-65
2023/08/12 01:35:45;;;;;;;3.53;2.38;;;20.70;99.90;;;;;;4968648;28;20293;-65
2023/08/12 01:38:14;;;;;;;2.70;2.50;;;20.70;99.90;;;;;;4967707;28;20198;-66
2023/08/12 01:40:42;;;;;;;4.63;2.50;;;20.70;99.90;;;;;;4968068;28;20301;-66
2023/08/12 01:43:09;;;;;;;4.22;2.47;;;20.70;99.90;;;;;;4968446;28;20646;-65
2023/08/12 01:45:36;;;;;;;4.28;2.80;;;20.70;99.90;;;;;;4967935;28;20219;-65
2023/08/12 01:48:04;;;;;;;2.47;2.35;;;20.70;99.90;;;;;;4968034;28;20218;-65
2023/08/12 01:50:31;;;;;;;2.50;2.30;;;20.70;99.90;;;;;;4967341;28;20294;-66
2023/08/12 01:52:58;;;;;;;3.28;2.30;;;20.70;99.90;;;;;;4967677;28;20297;-65
2023/08/12 01:55:26;;;;;;;4.45;2.47;;;20.70;99.90;;;;;;4968206;28;20274;-66
2023/08/12 01:57:53;;;;;;;2.50;2.30;;;20.70;99.90;;;;;;4968211;28;20218;-66
2023/08/12 02:00:20;;;;;;;4.57;2.17;;;20.70;99.90;;;;;;4968039;28;20234;-66
2023/08/12 02:02:47;;;;;;;2.63;2.42;;;20.70;99.90;;;;;;4968043;28;20238;-66
2023/08/12 02:05:14;;;;;;;3.22;2.42;;;20.70;99.90;;;;;;4967704;28;20214;-66
2023/08/12 02:07:41;;;;;;;3.45;2.45;;;20.70;99.90;;;;;;4967831;28;20215;-66
2023/08/12 02:10:08;;;;;;;2.33;2.20;;;20.60;99.90;;;;;;4967387;28;21017;-66
2023/08/12 02:12:36;;;;;;;2.80;2.40;;;20.50;99.90;;;;;;4967758;28;20211;-66
2023/08/12 02:15:04;;;;;;;2.83;2.50;;;20.60;99.90;;;;;;4967543;28;20213;-65
2023/08/12 02:17:30;;;;;;;3.95;2.40;;;20.60;99.90;;;;;;4967573;28;20285;-65
2023/08/12 02:19:57;;;;;;;2.95;2.55;;;20.60;99.90;;;;;;4967573;28;20266;-65
2023/08/12 02:22:24;;;;;;;3.03;2.80;;;20.60;99.90;;;;;;4967388;28;20274;-65
2023/08/12 02:24:51;;;;;;;2.65;2.47;;;20.60;99.90;;;;;;4967641;28;20556;-65
2023/08/12 02:27:18;;;;;;;3.50;2.70;;;20.50;99.90;;;;;;4967472;28;20207;-65
2023/08/12 02:29:46;;;;;;;4.85;3.05;;;20.50;99.90;;;;;;4966658;28;20745;-65
2023/08/12 02:32:13;;;;;;;3.10;2.80;;;20.50;99.90;;;;;;4966861;28;20826;-65
2023/08/12 02:34:40;;;;;;;4.10;2.50;;;20.50;99.90;;;;;;4966830;28;20322;-65
2023/08/12 02:37:07;;;;;;;6.55;2.78;;;20.50;99.90;;;;;;4966167;28;20225;-65
2023/08/12 02:39:33;;;;;;;3.15;2.80;;;20.50;99.90;;;;;;4966134;28;20764;-65
2023/08/12 02:42:00;;;;;;;4.28;2.97;;;20.50;99.90;;;;;;4966626;28;20214;-65
2023/08/12 02:44:27;;;;;;;2.60;2.40;;;20.50;99.90;;;;;;4966546;28;20219;-66
2023/08/12 02:46:55;;;;;;;2.70;2.50;;;20.50;99.90;;;;;;4966336;28;20202;-65
2023/08/12 02:49:22;;;;;;;3.20;2.93;;;20.50;99.90;;;;;;4965833;28;20761;-65
2023/08/12 02:51:49;;;;;;;2.90;2.70;;;20.40;99.90;;;;;;4966032;28;20214;-65
2023/08/12 02:54:16;;;;;;;4.22;2.80;;;20.40;99.90;;;;;;4965661;28;20210;-65
2023/08/12 02:56:43;;;;;;;3.33;2.97;;;20.40;99.90;;;;;;4966059;28;20673;-66
2023/08/12 02:59:09;;;;;;;3.93;2.73;;;20.40;99.90;;;;;;4965667;28;20241;-65
2023/08/12 03:01:36;;;;;;;4.80;3.08;;;20.40;99.90;;;;;;4966267;28;20302;-66
2023/08/12 03:04:05;;;;;;;11.13;3.50;;;20.40;99.90;;;;;;4966388;28;20302;-65
2023/08/12 03:06:32;;;;;;;2.95;2.75;;;20.40;99.90;;;;;;4966133;28;20470;-65
2023/08/12 03:08:59;;;;;;;3.35;2.67;;;20.30;99.90;;;;;;4966307;28;20326;-65
2023/08/12 03:11:26;;;;;;;4.90;2.88;;;20.30;99.90;;;;;;4966206;28;20306;-65
2023/08/12 03:13:53;;;;;;;2.63;2.43;;;20.30;99.90;;;;;;4965808;28;20290;-66
2023/08/12 03:16:19;;;;;;;4.50;2.60;;;20.30;99.90;;;;;;4965805;28;20207;-66
2023/08/12 03:18:46;;;;;;;2.60;2.40;;;20.30;99.90;;;;;;4965667;28;20256;-66
2023/08/12 03:21:15;;;;;;;2.90;2.70;;;20.30;99.90;;;;;;4965604;28;20242;-66
2023/08/12 03:23:41;;;;;;;3.05;2.85;;;20.30;99.90;;;;;;4965219;28;20265;-66
2023/08/12 03:26:08;;;;;;;3.07;2.70;;;20.20;99.90;;;;;;4965505;28;20298;-66
2023/08/12 03:28:36;;;;;;;3.13;2.93;;;20.20;99.90;;;;;;4965868;28;20727;-66
2023/08/12 03:31:03;;;;;;;3.00;2.80;;;20.20;99.90;;;;;;4927045;28;1130337;-67
2023/08/12 03:33:31;;;;;;;3.80;2.63;;;20.20;99.90;;;;;;4965772;28;20309;-66
2023/08/12 03:35:58;;;;;;;3.10;2.80;;;20.20;99.90;;;;;;4965825;28;20210;-65
2023/08/12 03:38:26;;;;;;;2.70;2.50;;;20.20;99.90;;;;;;4965359;28;20298;-66
2023/08/12 03:40:53;;;;;;;3.60;3.00;;;20.20;99.90;;;;;;4966369;28;20238;-66
2023/08/12 03:43:20;;;;;;;2.70;2.50;;;20.20;99.90;;;;;;4966876;28;20211;-66
2023/08/12 03:45:48;;;;;;;3.40;2.80;;;20.20;99.90;;;;;;4966893;28;20242;-66
2023/08/12 03:48:15;;;;;;;3.07;2.87;;;20.20;99.90;;;;;;4966404;28;20604;-65
2023/08/12 03:50:43;;;;;;;3.57;2.50;;;20.20;99.90;;;;;;4966683;28;20301;-65
2023/08/12 03:53:10;;;;;;;2.90;2.70;;;20.20;99.90;;;;;;4966200;28;20207;-66
2023/08/12 03:55:38;;;;;;;3.15;2.95;;;20.20;99.90;;;;;;4966302;28;20242;-65
2023/08/12 03:58:05;;;;;;;3.20;2.73;;;20.10;99.90;;;;;;4946945;28;20242;-65
2023/08/12 04:00:32;;;;;;;3.63;2.80;;;20.10;99.90;;;;;;4946730;28;20326;-65
2023/08/12 04:02:59;;;;;;;4.13;3.20;;;20.10;99.90;;;;;;4963345;28;20321;-65
2023/08/12 04:05:26;;;;;;;4.22;2.97;;;20.10;99.90;;;;;;4966043;28;20218;-66
2023/08/12 04:07:52;;;;;;;2.95;2.70;;;20.10;99.90;;;;;;4965866;28;20202;-66
2023/08/12 04:10:19;;;;;;;4.40;3.20;;;20.10;99.90;;;;;;4965783;28;20650;-66
2023/08/12 04:12:48;;;;;;;4.20;2.67;;;20.10;99.90;;;;;;4966199;28;20301;-66
2023/08/12 04:15:14;;;;;;;3.33;2.60;;;20.10;99.90;;;;;;4966015;28;20207;-66
2023/08/12 04:17:41;;;;;;;3.93;2.70;;;20.00;99.90;;;;;;4966438;28;20254;-66
2023/08/12 04:20:11;;;;;;;5.07;3.23;;;20.00;99.90;;;;;;4965586;28;20233;-66
2023/08/12 04:22:38;;;;;;;3.40;3.10;;;20.00;99.90;;;;;;4965503;28;20586;-66
2023/08/12 04:25:06;;;;;;;2.90;2.70;;;19.90;99.90;;;;;;4965713;28;20226;-66
2023/08/12 04:27:33;;;;;;;5.60;2.63;;;20.00;99.90;;;;;;4966136;28;20238;-66
2023/08/12 04:30:01;;;;;;;3.07;2.87;;;20.10;99.90;;;;;;4965749;28;20665;-66
2023/08/12 04:32:28;;;;;;;3.63;3.10;;;20.10;99.90;;;;;;4964952;28;20234;-65
2023/08/12 04:34:55;;;;;;;3.47;2.80;;;20.10;99.90;;;;;;4965567;28;20230;-66
2023/08/12 04:37:24;;;;;;;4.13;2.58;;;20.10;99.90;;;;;;4965263;28;20219;-65
2023/08/12 04:39:51;;;;;;;4.00;2.90;;;20.10;99.90;;;;;;4965634;28;20238;-66
2023/08/12 04:42:18;;;;;;;3.40;2.90;;;20.10;99.90;;;;;;4965481;28;20238;-65
2023/08/12 04:44:44;;;;;;;2.88;2.58;;;20.10;99.90;;;;;;4956439;28;20205;-65
2023/08/12 04:47:13;;;;;;;3.37;2.77;;;20.20;99.90;;;;;;4966141;28;20207;-65
2023/08/12 04:49:40;;;;;;;7.03;2.70;;;20.20;99.90;;;;;;4965998;28;20207;-65
2023/08/12 04:52:07;;;;;;;3.03;2.70;;;20.20;99.90;;;;;;4966697;28;20221;-66
2023/08/12 04:54:34;;;;;;;8.43;3.23;;;20.20;99.90;;;;;;4971011;28;20215;-66
2023/08/12 04:57:01;;;;;;;5.00;2.83;;;20.20;99.90;;;;;;4978338;28;20203;-65
2023/08/12 04:59:28;;;;;;;3.10;2.78;;;20.20;99.90;;;;;;4969399;28;20589;-65
2023/08/12 05:01:55;;;;;;;2.70;2.50;;;20.20;99.90;;;;;;4968811;28;20759;-65
2023/08/12 05:04:23;;;;;;;3.03;2.72;;;20.30;99.90;;;;;;4968790;28;20764;-65
2023/08/12 05:06:50;;;;;;;4.93;2.90;;;20.30;99.90;;;;;;4968927;28;20227;-65
2023/08/12 05:09:17;;;;;;;2.75;2.55;;;20.40;99.90;;;;;;4968553;28;20362;-65
2023/08/12 05:11:43;;;;;;;5.85;3.22;;;20.40;99.90;;;;;;4968759;28;20211;-65
2023/08/12 05:14:10;;;;;;;5.28;2.75;;;20.40;99.90;;;;;;4968694;28;20217;-66
2023/08/12 05:16:37;;;;;;;3.92;2.70;;;20.40;99.90;;;;;;4968730;28;20322;-65
2023/08/12 05:19:04;;;;;;;4.68;3.10;;;20.50;99.90;;;;;;4968521;28;20547;-66
2023/08/12 05:21:33;;;;;;;4.05;2.45;;;20.50;99.90;;;;;;4968332;28;20222;-65
2023/08/12 05:23:59;;;;;;;4.20;2.60;;;20.50;99.90;;;;;;4968075;28;20211;-66
2023/08/12 05:26:26;;;;;;;6.88;2.90;;;20.50;99.90;;;;;;4968435;28;20221;-66
2023/08/12 05:28:53;;;;;;;2.58;2.40;;;20.60;99.90;;;;;;4968555;28;20630;-66
2023/08/12 05:31:20;;;;;;;4.25;2.70;;;20.60;99.90;;;;;;4968498;28;20346;-66
2023/08/12 05:33:47;;;;;;;3.58;2.95;;;20.70;99.90;;;;;;4968202;28;20205;-66
2023/08/12 05:36:14;;;;;;;3.97;2.67;;;20.70;99.90;;;;;;4968705;28;20211;-66
2023/08/12 05:38:42;;;;;;;5.32;2.95;;;20.70;99.90;;;;;;4968333;28;20293;-65
2023/08/12 05:41:09;;;;;;;3.88;3.00;;;20.80;99.90;;;;;;4968296;28;20369;-65
2023/08/12 05:43:36;;;;;;;3.63;2.60;;;20.80;99.90;;;;;;4968692;28;20217;-65
2023/08/12 05:46:03;;;;;;;2.88;2.67;;;20.80;99.90;;;;;;4968016;28;20290;-65
2023/08/12 05:48:30;;;;;;;3.83;2.83;;;20.90;99.90;;;;;;4968220;28;20219;-65
2023/08/12 05:50:57;;;;;;;3.25;2.72;;;20.90;99.90;;;;;;4968142;28;20298;-65
2023/08/12 05:53:24;;;;;;;3.75;3.00;;;20.90;99.90;;;;;;4967742;28;20215;-65
2023/08/12 05:55:52;;;;;;;5.60;2.90;;;21.00;99.90;;;;;;4967672;28;20306;-65
2023/08/12 05:58:20;;;;;;;5.03;3.10;;;21.00;99.90;;;;;;4967644;28;20211;-65
2023/08/12 06:00:47;;;;;;;3.00;2.55;;;21.00;99.90;;;;;;4966511;28;20231;-65
2023/08/12 06:03:14;;;;;;;3.42;3.08;;;21.10;99.90;;;;;;4967321;28;20292;-66
2023/08/12 06:05:41;;;;;;;3.85;2.60;;;21.10;99.90;;;;;;4967255;28;20229;-66
2023/08/12 06:08:08;;;;;;;2.75;2.55;;;21.10;99.90;;;;;;4967879;28;20602;-66
2023/08/12 06:10:35;;;;;;;3.65;2.50;;;21.10;99.90;;;;;;4961333;28;20664;-67
2023/08/12 06:13:04;;;;;;;2.72;2.50;;;21.10;99.90;;;;;;4962314;28;20554;-67
2023/08/12 06:15:31;;;;;;;3.00;2.80;;;21.20;99.90;;;;;;4962146;28;20302;-66
2023/08/12 06:17:59;;;;;;;2.97;2.78;;;21.20;99.90;;;;;;4966087;28;20257;-66
2023/08/12 06:20:26;;;;;;;3.28;2.60;;;21.20;99.90;;;;;;4967053;28;20680;-66
2023/08/12 06:22:53;;;;;;;4.43;2.95;;;21.20;99.90;;;;;;4965992;28;20391;-66
2023/08/12 06:25:20;;;;;;;3.50;2.83;;;21.20;99.90;;;;;;4959061;28;20242;-66
2023/08/12 06:27:47;;;;;;;5.68;3.05;;;21.20;99.90;;;;;;4954025;28;20207;-68
2023/08/12 06:30:16;;;;;;;6.50;3.05;;;21.30;99.90;;;;;;4960796;28;20683;-66
2023/08/12 06:32:43;;;;;;;4.22;3.00;;;21.30;99.90;;;;;;4964842;28;20249;-66
2023/08/12 06:35:10;;;;;;;3.65;2.67;;;21.30;99.90;;;;;;4967041;28;20215;-66
2023/08/12 06:37:37;;;;;;;3.65;3.20;;;21.40;99.90;;;;;;4966583;28;20211;-66
2023/08/12 06:40:05;;;;;;;4.70;2.78;;;21.40;99.90;;;;;;4966395;28;20919;-65
2023/08/12 06:42:31;;;;;;;5.47;3.33;;;21.40;99.90;;;;;;4966750;28;20564;-66
2023/08/12 06:45:00;;;;;;;4.72;2.72;;;21.40;99.90;;;;;;4967164;28;20247;-66
2023/08/12 06:47:29;;;;;;;2.90;2.63;;;21.40;99.90;;;;;;4971734;28;20245;-66
2023/08/12 06:49:56;;;;;;;3.42;3.10;;;21.40;99.90;;;;;;4982744;28;20580;-66
2023/08/12 06:52:23;;;;;;;4.70;2.88;;;21.40;99.90;;;;;;4947878;28;20322;-66
2023/08/12 06:54:50;;;;;;;3.97;3.03;;;21.50;99.90;;;;;;4958313;28;20211;-66
2023/08/12 06:57:17;;;;;;;4.65;3.53;;;21.50;99.90;;;;;;4966899;28;20253;-66
2023/08/12 06:59:44;;;;;;;5.10;3.05;;;21.50;99.90;;;;;;4966873;28;20214;-66
2023/08/12 07:02:11;;;;;;;6.00;3.03;;;21.60;99.90;;;;;;4966867;28;20239;-66
2023/08/12 07:04:39;;;;;;;4.10;3.05;;;21.60;99.90;;;;;;4966877;28;20213;-66
2023/08/12 07:07:06;;;;;;;3.03;2.80;;;21.70;99.90;;;;;;4966474;28;20836;-66
2023/08/12 07:09:33;;;;;;;4.43;3.10;;;21.80;99.90;;;;;;4966675;28;20218;-66
2023/08/12 07:12:01;;;;;;;4.00;2.95;;;21.90;99.90;;;;;;4966644;28;21220;-67
2023/08/12 07:14:28;;;;;;;3.33;2.78;;;21.90;99.90;;;;;;4966533;28;20902;-67
2023/08/12 07:16:55;;;;;;;3.53;3.22;;;22.00;99.90;;;;;;4966379;28;20322;-67
2023/08/12 07:19:23;;;;;;;3.35;2.80;;;22.10;99.90;;;;;;4966633;28;20210;-66
2023/08/12 07:21:51;;;;;;;5.82;2.95;;;22.20;99.90;;;;;;4966439;28;21039;-66
2023/08/12 07:24:18;;;;;;;4.25;3.10;;;22.20;99.90;;;;;;4967115;28;20656;-66
2023/08/12 07:26:45;;;;;;;2.75;2.50;;;22.30;99.90;;;;;;4967059;28;20281;-66
2023/08/12 07:29:12;;;;;;;3.33;3.03;;;22.40;99.90;;;;;;4966164;28;20297;-67
2023/08/12 07:31:39;;;;;;;4.00;2.70;;;22.40;99.90;;;;;;4966251;28;20325;-66
2023/08/12 07:34:06;;;;;;;5.30;3.22;;;22.40;99.90;;;;;;4966362;28;20310;-67
2023/08/12 07:36:33;;;;;;;3.90;3.00;;;22.50;99.90;;;;;;4965884;28;20741;-66
2023/08/12 07:39:02;;;;;;;3.28;2.92;;;22.50;99.90;;;;;;4966288;28;20206;-66
2023/08/12 07:41:28;;;;;;;4.45;2.90;;;22.50;99.90;;;;;;4965310;28;20254;-66
2023/08/12 07:43:55;;;;;;;5.07;3.20;;;22.60;99.90;;;;;;4972328;28;20210;-66
2023/08/12 07:46:22;;;;;;;4.25;3.40;;;22.60;99.90;;;;;;4979046;28;20281;-66
2023/08/12 07:48:49;;;;;;;4.03;2.92;;;22.60;99.90;;;;;;4947421;28;20657;-66
2023/08/12 07:51:16;;;;;;;5.03;3.05;;;22.50;99.90;;;;;;4946894;28;20295;-66
2023/08/12 07:53:43;;;;;;;4.68;3.13;;;22.50;99.90;;;;;;4948061;28;20218;-67
2023/08/12 07:56:11;;;;;;;3.08;2.60;;;22.50;99.90;;;;;;4966368;28;20221;-66
2023/08/12 07:58:38;;;;;;;4.28;3.42;;;22.50;99.90;;;;;;4966426;28;20234;-66
2023/08/12 08:01:06;;;;;;;4.15;3.22;;;22.50;99.90;;;;;;4966125;28;20229;-66
2023/08/12 08:03:32;;;;;;;6.55;3.00;;;22.50;99.90;;;;;;4966055;28;20293;-66
2023/08/12 08:05:59;;;;;;;3.45;2.95;;;22.50;99.90;;;;;;4965862;28;20733;-66
2023/08/12 08:08:26;;;;;;;5.38;3.00;;;22.50;99.90;;;;;;4965950;28;20619;-66
2023/08/12 08:10:53;;;;;;;4.03;3.47;;;22.40;99.90;;;;;;4966099;28;20215;-66
2023/08/12 08:13:21;;;;;;;3.65;3.40;;;22.40;99.90;;;;;;4965945;28;20701;-66
2023/08/12 08:15:48;;;;;;;4.07;3.22;;;22.40;99.90;;;;;;4965260;28;20203;-66
2023/08/12 08:18:15;;;;;;;4.65;3.20;;;22.30;99.90;;;;;;4957385;28;20227;-66
2023/08/12 08:20:43;;;;;;;4.32;3.10;;;22.30;99.90;;;;;;4962308;28;20221;-66
2023/08/12 08:23:10;;;;;;;3.28;2.95;;;22.30;99.90;;;;;;4949204;28;20741;-66
2023/08/12 08:25:37;;;;;;;7.05;3.40;;;22.20;99.90;;;;;;4944934;28;20219;-66
2023/08/12 08:28:04;;;;;;;3.05;2.75;;;22.20;99.90;;;;;;4946876;28;20270;-66
2023/08/12 08:30:32;;;;;;;4.00;3.15;;;22.10;99.90;;;;;;4958087;28;20206;-66
2023/08/12 08:32:59;;;;;;;3.22;2.97;;;22.20;99.90;;;;;;4967581;28;20338;-66
2023/08/12 08:35:26;;;;;;;6.75;3.38;;;22.20;99.90;;;;;;4967194;28;20294;-66
2023/08/12 08:37:54;;;;;;;3.75;3.45;;;22.20;99.90;;;;;;4968026;28;20225;-66
2023/08/12 08:40:21;;;;;;;3.38;3.13;;;22.20;99.90;;;;;;4967804;28;20218;-66
2023/08/12 08:42:52;;;;;;;3.65;3.35;;;22.20;99.90;;;;;;4967576;28;20238;-66
2023/08/12 08:45:20;;;;;;;4.00;3.15;;;22.20;99.90;;;;;;4967669;28;20210;-66
2023/08/12 08:47:50;;;;;;;3.90;3.55;;;22.20;99.90;;;;;;4967539;28;20210;-66
2023/08/12 08:50:18;;;;;;;4.68;3.33;;;22.30;99.90;;;;;;4967810;28;20202;-66
2023/08/12 08:52:45;;;;;;;5.35;3.47;;;22.20;99.90;;;;;;4967595;28;20214;-66
2023/08/12 08:55:13;;;;;;;8.43;4.05;;;22.30;99.90;;;;;;4968018;28;20298;-67
2023/08/12 08:57:40;;;;;;;4.13;3.72;;;22.30;99.90;;;;;;4967726;28;20223;-66
2023/08/12 09:00:09;;;;;;;3.63;3.33;;;22.30;99.90;;;;;;4967901;28;20302;-66
2023/08/12 09:02:37;;;;;;;3.85;3.40;;;22.40;99.90;;;;;;4967333;28;20304;-66
2023/08/12 09:05:08;;;;;;;4.70;3.63;;;22.40;99.90;;;;;;4967226;28;20214;-66
2023/08/12 09:07:35;;;;;;;4.03;3.72;;;22.40;99.90;;;;;;4966487;28;21004;-66
2023/08/12 09:10:05;;;;;;;4.15;3.85;;;22.50;99.90;;;;;;4967256;28;20214;-66
2023/08/12 09:12:32;;;;;;;4.45;3.80;;;22.50;99.90;;;;;;4967338;28;20238;-66
2023/08/12 09:14:59;;;;;;;3.38;3.28;;;22.50;99.90;;;;;;4967435;28;20290;-66
2023/08/12 09:17:26;;;;;;;4.22;3.90;;;22.60;99.90;;;;;;4967006;28;20233;-66
2023/08/12 09:19:53;;;;;;;3.88;3.58;;;22.70;99.90;;;;;;4966908;28;20219;-66
2023/08/12 09:22:24;;;;;;;3.70;3.50;;;22.70;99.90;;;;;;4966399;28;20893;-66
2023/08/12 09:24:51;;;;;;;3.50;3.20;;;22.80;99.90;;;;;;4967119;28;20203;-66
2023/08/12 09:27:19;;;;;;;3.72;3.42;;;22.80;99.90;;;;;;4966825;28;20207;-66
2023/08/12 09:29:45;;;;;;;4.03;3.60;;;22.80;99.90;;;;;;4966105;28;20203;-66
2023/08/12 09:32:13;;;;;;;10.63;3.97;;;22.70;99.90;;;;;;4966444;28;20755;-66
2023/08/12 09:34:47;;;;;;;3.83;3.53;;;22.70;99.90;;;;;;4966911;28;20204;-66
2023/08/12 09:37:14;;;;;;;4.20;3.80;;;22.70;99.90;;;;;;4966773;28;20210;-66
2023/08/12 09:39:43;;;;;;;6.47;4.05;;;22.80;99.90;;;;;;4966095;28;20585;-66
2023/08/12 09:42:10;;;;;;;3.80;3.35;;;22.90;99.90;;;;;;4966670;28;20590;-66
2023/08/12 09:44:37;;;;;;;6.70;3.70;;;22.90;99.90;;;;;;4966523;28;20210;-67
2023/08/12 09:47:05;;;;;;;3.75;3.50;;;23.00;99.90;;;;;;4966821;28;20646;-66
2023/08/12 09:49:32;;;;;;;4.03;3.67;;;23.00;99.90;;;;;;4966092;28;20294;-66
2023/08/12 09:51:59;;;;;;;4.28;3.85;;;23.00;99.90;;;;;;4966578;28;20245;-66
2023/08/12 09:54:27;;;;;;;5.07;3.70;;;23.00;99.90;;;;;;4966566;28;20882;-66
2023/08/12 09:56:59;;;;;;;4.03;3.70;;;23.00;99.90;;;;;;4966641;28;20763;-66
2023/08/12 09:59:29;;;;;;;7.05;4.00;;;23.00;99.90;;;;;;4966229;28;20217;-66
2023/08/12 10:01:56;;;;;;;4.28;3.88;;;23.00;99.90;;;;;;4966461;28;20223;-66
2023/08/12 10:04:27;;;;;;;4.40;4.00;;;23.00;99.90;;;;;;4965910;28;20298;-66
2023/08/12 10:06:55;;;;;;;4.68;4.35;;;23.00;99.90;;;;;;4966419;28;20286;-66
2023/08/12 10:09:22;;;;;;;5.35;3.70;;;23.10;99.90;;;;;;4966609;28;20226;-66
2023/08/12 10:11:50;;;;;;;4.05;3.70;;;23.00;99.90;;;;;;4962453;28;20219;-66
2023/08/12 10:14:19;;;;;;;4.20;3.83;;;23.10;99.90;;;;;;4954265;28;20684;-66
2023/08/12 10:16:47;;;;;;;4.15;3.85;;;23.10;99.90;;;;;;4967291;28;20404;-66
2023/08/12 10:19:17;;;;;;;4.30;4.00;;;23.20;99.90;;;;;;4967418;28;20995;-66
2023/08/12 10:21:45;;;;;;;5.88;4.20;;;23.20;99.90;;;;;;4967524;28;21051;-66
2023/08/12 10:24:12;;;;;;;3.78;3.50;;;23.30;99.90;;;;;;4967602;28;20297;-66
2023/08/12 10:26:41;;;;;;;4.05;3.75;;;23.30;99.90;;;;;;4967184;28;20206;-67
2023/08/12 10:29:09;;;;;;;3.92;3.63;;;23.30;99.90;;;;;;4952424;28;20218;-68
2023/08/12 10:31:39;;;;;;;4.50;3.85;;;23.30;99.90;;;;;;4959521;28;20250;-68
2023/08/12 10:34:06;;;;;;;4.78;3.50;;;23.30;99.90;;;;;;4960847;28;20218;-67
2023/08/12 10:36:34;;;;;;;4.07;3.78;;;23.40;99.90;;;;;;4961835;28;20234;-67
2023/08/12 10:39:01;;;;;;;4.22;3.83;;;23.50;99.90;;;;;;4961631;28;20289;-67
2023/08/12 10:41:30;;;;;;;4.50;3.88;;;23.60;99.90;;;;;;4958185;28;20213;-66
2023/08/12 10:44:01;;;;;;;5.75;3.92;;;23.70;99.90;;;;;;4966945;28;20222;-67
2023/08/12 10:46:32;;;;;;;7.25;3.97;;;23.80;99.90;;;;;;4959386;28;20283;-67
2023/08/12 10:49:05;;;;;;;4.70;3.42;;;23.80;99.90;;;;;;4955946;28;20213;-67
2023/08/12 10:51:56;;;;;;;4.75;4.13;;;23.80;99.90;;;;;;4958049;28;20192;-67
2023/08/12 10:54:26;;;;;;;4.30;4.00;;;23.80;99.90;;;;;;4938383;28;20290;-67
2023/08/12 10:57:08;;;;;;;4.68;4.38;;;23.80;99.90;;;;;;4961646;28;20274;-67
2023/08/12 10:59:52;;;;;;;4.60;4.30;;;23.80;99.90;;;;;;4952777;28;20692;-67
2023/08/12 11:02:21;;;;;;;5.00;4.60;;;23.90;99.90;;;;;;4961177;28;20230;-67
2023/08/12 11:04:54;;;;;;;4.82;4.43;;;23.90;99.90;;;;;;4957686;28;20728;-67
2023/08/12 11:07:23;;;;;;;4.55;4.20;;;23.90;99.90;;;;;;4960658;28;20203;-67
2023/08/12 11:09:53;;;;;;;4.25;3.95;;;23.90;99.90;;;;;;4958040;28;20202;-68
2023/08/12 11:12:28;;;;;;;4.53;4.22;;;23.90;99.90;;;;;;4964968;28;20242;-67
2023/08/12 11:14:55;;;;;;;4.47;4.07;;;24.00;99.90;;;;;;4957470;28;20287;-67
2023/08/12 11:17:30;;;;;;;4.55;4.15;;;24.00;99.90;;;;;;4957401;28;20729;-67
2023/08/12 11:20:00;;;;;;;4.25;4.03;;;24.00;99.90;;;;;;4958642;28;20203;-67
2023/08/12 11:22:26;;;;;;;4.10;3.80;;;23.90;99.90;;;;;;4964044;28;20692;-67
2023/08/12 11:24:54;;;;;;;4.20;3.90;;;23.90;99.90;;;;;;4958148;28;20215;-67
2023/08/12 11:27:21;;;;;;;4.00;3.70;;;23.90;99.90;;;;;;4960501;28;20735;-67
2023/08/12 11:29:49;;;;;;;3.95;3.70;;;23.90;99.90;;;;;;4959842;28;20329;-67
2023/08/12 11:32:17;;;;;;;6.97;4.03;;;23.80;99.90;;;;;;4948809;28;20275;-67
2023/08/12 11:34:44;;;;;;;4.30;3.90;;;23.80;99.90;;;;;;4958152;28;20203;-67
2023/08/12 11:37:13;;;;;;;3.78;3.53;;;23.70;99.90;;;;;;4957577;28;20639;-67
2023/08/12 11:39:40;;;;;;;3.83;3.53;;;23.70;99.90;;;;;;4961442;28;20811;-67
2023/08/12 11:42:07;;;;;;;4.47;3.70;;;23.80;99.90;;;;;;4962892;28;20302;-67
2023/08/12 11:44:33;;;;;;;4.75;3.97;;;23.70;99.90;;;;;;4960797;28;20574;-67
2023/08/12 11:47:00;;;;;;;4.93;3.78;;;23.80;99.90;;;;;;4958072;28;20713;-67
2023/08/12 11:49:27;;;;;;;6.53;3.92;;;23.80;99.90;;;;;;4959134;28;20658;-65
2023/08/12 11:51:54;;;;;;;4.30;3.67;;;23.80;99.90;;;;;;4962976;28;20222;-65
2023/08/12 11:54:23;;;;;;;4.97;3.72;;;23.80;99.90;;;;;;4962540;28;20277;-65
2023/08/12 11:56:50;;;;;;;5.68;4.38;;;23.80;99.90;;;;;;4958142;28;20295;-66
2023/08/12 11:59:17;;;;;;;3.92;3.58;;;23.80;99.90;;;;;;4957948;28;20203;-65
2023/08/12 12:01:49;;;;;;;4.40;3.90;;;23.80;99.90;;;;;;4964765;28;20265;-66
2023/08/12 12:04:17;;;;;;;4.07;3.70;;;23.70;99.90;;;;;;4964505;28;20226;-66
2023/08/12 12:06:44;;;;;;;4.35;3.67;;;23.70;99.90;;;;;;4962165;28;20214;-65
2023/08/12 12:09:13;;;;;;;5.93;4.47;;;23.60;99.90;;;;;;4963712;28;20226;-65
2023/08/12 12:11:43;;;;;;;5.93;4.50;;;23.60;99.90;;;;;;4959915;28;20206;-65
2023/08/12 12:14:11;;;;;;;4.40;4.20;;;23.50;99.90;;;;;;4959140;28;20306;-65
2023/08/12 12:16:42;;;;;;;4.53;4.13;;;23.60;99.90;;;;;;4964509;28;20234;-65
2023/08/12 12:19:16;;;;;;;4.88;4.43;;;23.60;99.90;;;;;;4958206;28;20202;-65
2023/08/12 12:21:45;;;;;;;4.43;4.03;;;23.60;99.90;;;;;;4955837;28;20227;-67
2023/08/12 12:24:12;;;;;;;4.40;3.95;;;23.60;99.90;;;;;;4956608;28;21054;-65
2023/08/12 12:26:41;;;;;;;4.18;3.88;;;23.60;99.90;;;;;;4968046;28;20301;-65
2023/08/12 12:29:11;;;;;;;5.72;4.20;;;23.60;99.90;;;;;;4962716;28;20217;-66
2023/08/12 12:31:38;;;;;;;4.95;4.22;;;23.60;99.90;;;;;;4962790;28;20235;-66
2023/08/12 12:34:06;;;;;;;4.65;4.25;;;23.60;99.90;;;;;;4962957;28;20263;-65
2023/08/12 12:36:34;;;;;;;4.50;3.85;;;23.60;99.90;;;;;;4960545;28;20286;-66
2023/08/12 12:39:01;;;;;;;4.43;4.13;;;23.70;99.90;;;;;;4959045;28;20209;-66
2023/08/12 12:41:28;;;;;;;4.03;3.72;;;23.80;99.90;;;;;;4960338;28;20505;-66
2023/08/12 12:43:57;;;;;;;3.90;3.70;;;23.90;99.90;;;;;;4957270;28;20322;-66
2023/08/12 12:46:24;;;;;;;4.20;3.90;;;24.00;99.90;;;;;;4962973;28;20820;-66
2023/08/12 12:48:50;;;;;;;4.07;3.80;;;24.10;99.90;;;;;;4963180;28;20212;-65